Time;durP1;ratioP1;P1;durP2;ratioP2;P2;SDS_P1;SDS_P2;PMS_P1;PMS_P2;Temp;Humidity;BMP_temperature;BMP_pressure;BME280_temperature;BME280_humidity;BME280_pressure;Samples;Min_cycle;Max_cycle;Signal;HPM_P1;HPM_P2
2022/12/28 00:01:14;;;;;;;2.83;0.90;;;6.10;99.90;;;;;;5035777;28;20201;-45
2022/12/28 00:03:40;;;;;;;6.37;1.43;;;6.10;99.90;;;;;;5034072;28;20184;-43
2022/12/28 00:06:07;;;;;;;5.00;1.10;;;6.10;99.90;;;;;;5035236;28;20181;-46
2022/12/28 00:08:32;;;;;;;4.63;1.20;;;6.20;99.90;;;;;;5034139;28;20640;-45
2022/12/28 00:11:00;;;;;;;4.07;1.60;;;6.10;99.90;;;;;;5033926;28;20292;-43
2022/12/28 00:13:28;;;;;;;3.73;1.20;;;6.20;99.90;;;;;;5035187;28;20281;-44
2022/12/28 00:15:53;;;;;;;5.23;1.47;;;6.20;99.90;;;;;;5035468;28;20232;-43
2022/12/28 00:18:19;;;;;;;6.93;1.40;;;6.20;99.90;;;;;;5035350;28;20643;-44
2022/12/28 00:20:58;;;;;;;2.43;1.33;;;6.30;99.90;;;;;;5034893;28;20214;-44
2022/12/28 00:23:24;;;;;;;3.37;1.23;;;6.30;99.90;;;;;;5032977;28;20649;-43
2022/12/28 00:25:50;;;;;;;2.80;1.40;;;6.30;99.90;;;;;;5034920;28;20189;-43
2022/12/28 00:28:15;;;;;;;4.27;1.80;;;6.30;99.90;;;;;;5034860;28;20177;-43
2022/12/28 00:30:41;;;;;;;6.57;1.10;;;6.30;99.90;;;;;;5034760;28;20268;-44
2022/12/28 00:33:07;;;;;;;4.87;1.50;;;6.40;99.90;;;;;;5035009;28;20189;-44
2022/12/28 00:35:32;;;;;;;4.97;1.30;;;6.40;99.90;;;;;;5034744;28;20197;-43
2022/12/28 00:37:58;;;;;;;3.63;1.00;;;6.40;99.90;;;;;;5035221;28;20186;-45
2022/12/28 00:40:23;;;;;;;3.80;1.47;;;6.50;99.90;;;;;;5034604;28;20211;-44
2022/12/28 00:42:49;;;;;;;3.27;1.17;;;6.50;99.90;;;;;;5034595;28;20202;-44
2022/12/28 00:45:14;;;;;;;4.67;1.47;;;6.50;99.90;;;;;;5034655;28;20253;-46
2022/12/28 00:47:40;;;;;;;3.03;1.50;;;6.50;99.90;;;;;;5035054;28;20236;-43
2022/12/28 00:50:06;;;;;;;2.70;1.23;;;6.40;99.90;;;;;;5034682;28;20194;-46
2022/12/28 00:52:32;;;;;;;3.73;1.03;;;6.50;99.90;;;;;;5034318;28;20210;-45
2022/12/28 00:54:57;;;;;;;4.37;1.47;;;6.50;99.90;;;;;;5034657;28;20270;-44
2022/12/28 00:57:23;;;;;;;1.57;1.10;;;6.50;99.90;;;;;;5034328;28;20192;-43
2022/12/28 00:59:48;;;;;;;2.37;1.30;;;6.50;99.90;;;;;;5034235;28;20541;-44
2022/12/28 01:02:14;;;;;;;1.63;1.10;;;6.50;99.90;;;;;;5034174;28;20205;-44
2022/12/28 01:04:39;;;;;;;2.97;1.30;;;6.50;99.90;;;;;;5034499;28;20272;-44
2022/12/28 01:07:05;;;;;;;3.27;1.27;;;6.50;99.90;;;;;;5034163;28;20236;-44
2022/12/28 01:09:30;;;;;;;4.07;1.70;;;6.50;99.90;;;;;;5034632;28;20231;-44
2022/12/28 01:11:56;;;;;;;5.47;1.50;;;6.50;99.90;;;;;;5034022;28;20209;-45
2022/12/28 01:14:22;;;;;;;2.70;1.20;;;6.50;99.90;;;;;;5033997;28;20227;-43
2022/12/28 01:16:47;;;;;;;1.87;1.07;;;6.50;99.90;;;;;;5034573;28;20186;-44
2022/12/28 01:19:18;;;;;;;2.37;1.30;;;6.50;99.90;;;;;;5034189;28;20242;-45
2022/12/28 01:21:43;;;;;;;3.60;1.47;;;6.50;99.90;;;;;;5033840;28;20199;-44
2022/12/28 01:24:09;;;;;;;4.67;1.87;;;6.50;99.90;;;;;;5034201;28;20234;-44
2022/12/28 01:26:35;;;;;;;4.37;1.30;;;6.50;99.90;;;;;;5033801;28;20210;-44
2022/12/28 01:29:01;;;;;;;3.77;1.43;;;6.50;99.90;;;;;;5033811;28;20186;-44
2022/12/28 01:31:26;;;;;;;2.23;1.20;;;6.50;99.90;;;;;;5032444;28;20218;-43
2022/12/28 01:33:54;;;;;;;1.63;1.53;;;6.50;99.90;;;;;;5034151;28;20190;-43
2022/12/28 01:36:22;;;;;;;3.40;1.37;;;6.60;99.90;;;;;;5033666;28;20189;-45
2022/12/28 01:38:52;;;;;;;4.03;1.57;;;6.60;99.90;;;;;;5033556;28;20203;-44
2022/12/28 01:41:19;;;;;;;4.17;1.20;;;6.60;99.90;;;;;;5032282;28;20202;-45
2022/12/28 01:43:46;;;;;;;1.07;0.83;;;6.60;99.90;;;;;;5033818;28;20644;-45
2022/12/28 01:46:17;;;;;;;3.90;1.63;;;6.60;99.90;;;;;;5033660;28;20175;-44
2022/12/28 01:48:52;;;;;;;4.50;1.30;;;6.60;99.90;;;;;;5033728;28;20171;-43
2022/12/28 01:51:20;;;;;;;2.10;1.27;;;6.60;99.90;;;;;;5033553;28;20197;-45
2022/12/28 01:53:47;;;;;;;1.23;1.10;;;6.60;99.90;;;;;;5033398;28;20263;-45
2022/12/28 01:56:13;;;;;;;2.07;1.10;;;6.70;99.90;;;;;;5032123;28;20669;-43
2022/12/28 01:58:39;;;;;;;3.37;1.57;;;6.70;99.90;;;;;;5033370;28;20189;-47
2022/12/28 02:01:05;;;;;;;2.00;1.23;;;6.70;99.90;;;;;;5033242;28;20199;-44
2022/12/28 02:03:33;;;;;;;2.37;1.40;;;6.70;99.90;;;;;;5033758;28;20193;-46
2022/12/28 02:06:03;;;;;;;6.00;1.97;;;6.70;99.90;;;;;;5033917;28;20179;-43
2022/12/28 02:08:51;;;;;;;1.17;0.90;;;6.70;99.90;;;;;;5033839;28;20548;-44
2022/12/28 02:11:18;;;;;;;4.13;1.27;;;6.80;99.90;;;;;;5033219;28;20214;-44
2022/12/28 02:13:46;;;;;;;3.83;1.53;;;6.80;99.90;;;;;;5033149;28;20214;-46
2022/12/28 02:16:11;;;;;;;2.47;1.27;;;6.90;99.90;;;;;;5033208;28;20352;-44
2022/12/28 02:18:40;;;;;;;3.53;1.13;;;7.00;99.90;;;;;;5033115;28;20652;-42
2022/12/28 02:21:16;;;;;;;2.83;1.67;;;7.00;99.90;;;;;;5033193;28;20248;-42
2022/12/28 02:23:53;;;;;;;2.83;1.13;;;7.10;99.90;;;;;;5033391;28;20176;-44
2022/12/28 02:26:40;;;;;;;3.57;1.43;;;7.10;99.90;;;;;;5033338;28;20179;-45
2022/12/28 02:29:33;;;;;;;2.07;1.27;;;7.20;99.90;;;;;;5032972;28;20205;-43
2022/12/28 02:32:37;;;;;;;5.17;1.77;;;7.30;99.90;;;;;;5033382;28;20604;-44
2022/12/28 02:35:27;;;;;;;1.87;1.30;;;7.30;99.90;;;;;;5032400;28;20178;-45
2022/12/28 02:38:04;;;;;;;4.80;1.30;;;7.30;99.90;;;;;;5033597;28;20168;-44
2022/12/28 02:40:40;;;;;;;2.37;1.20;;;7.30;99.90;;;;;;5033158;28;20595;-43
2022/12/28 02:43:06;;;;;;;1.70;1.37;;;7.30;99.90;;;;;;5031741;28;20635;-44
2022/12/28 02:51:47;;;;;;;3.73;1.40;;;7.30;99.90;;;;;;5036849;28;20277;-44
2022/12/28 02:58:02;;;;;;;3.07;1.63;;;7.40;99.90;;;;;;5025365;28;20221;-44
2022/12/28 03:00:47;;;;;;;4.00;1.67;;;7.40;99.90;;;;;;5036416;28;20210;-44
2022/12/28 03:03:20;;;;;;;2.60;1.40;;;7.40;99.90;;;;;;5036822;28;20172;-44
2022/12/28 03:09:18;;;;;;;0.83;0.83;;;7.50;99.90;;;;;;5035733;28;20318;-41
2022/12/28 03:11:53;;;;;;;2.77;1.30;;;7.50;99.90;;;;;;5037094;28;20214;-42
2022/12/28 03:14:29;;;;;;;3.03;1.20;;;7.50;99.90;;;;;;5036607;28;20228;-45
2022/12/28 03:31:07;;;;;;;2.90;1.40;;;7.70;99.90;;;;;;5036264;28;20214;-41
2022/12/28 03:33:38;;;;;;;3.83;1.73;;;7.80;99.90;;;;;;5036341;28;20175;-42
2022/12/28 03:36:16;;;;;;;3.43;1.60;;;7.80;99.90;;;;;;5036244;28;20546;-41
2022/12/28 03:39:01;;;;;;;2.73;1.50;;;7.80;99.90;;;;;;5035814;28;20179;-45
2022/12/28 03:41:49;;;;;;;3.07;1.13;;;7.80;99.90;;;;;;5035861;28;20284;-45
2022/12/28 03:44:23;;;;;;;2.23;1.63;;;7.80;99.90;;;;;;5036268;28;20549;-44
2022/12/28 03:46:58;;;;;;;3.87;1.63;;;7.80;99.90;;;;;;5035780;28;20215;-42
2022/12/28 03:49:24;;;;;;;2.33;1.70;;;7.90;99.90;;;;;;5035955;28;20167;-42
2022/12/28 03:51:51;;;;;;;6.10;2.00;;;7.90;99.90;;;;;;5035653;28;20197;-45
2022/12/28 03:54:17;;;;;;;2.23;1.60;;;7.90;99.90;;;;;;5036172;28;20184;-44
2022/12/28 03:56:46;;;;;;;2.33;1.50;;;7.90;99.90;;;;;;5035511;28;20259;-43
2022/12/28 03:59:11;;;;;;;3.53;2.00;;;7.90;99.90;;;;;;5034450;28;20305;-44
2022/12/28 04:01:37;;;;;;;4.67;2.13;;;7.90;99.90;;;;;;5035419;28;20219;-43
2022/12/28 04:04:03;;;;;;;5.97;1.90;;;8.00;99.90;;;;;;5035453;28;20560;-45
2022/12/28 04:06:28;;;;;;;4.20;1.97;;;8.00;99.90;;;;;;5035585;28;20183;-43
2022/12/28 04:08:54;;;;;;;2.67;1.10;;;8.00;99.90;;;;;;5035662;28;20260;-42
2022/12/28 04:11:19;;;;;;;4.80;1.37;;;8.00;99.90;;;;;;5035231;28;20197;-43
2022/12/28 04:13:45;;;;;;;4.03;1.93;;;8.00;99.90;;;;;;5035245;28;20648;-43
2022/12/28 04:16:12;;;;;;;3.07;1.50;;;8.00;99.90;;;;;;5035158;28;20237;-44
2022/12/28 04:18:38;;;;;;;1.97;1.50;;;8.00;99.90;;;;;;5035312;28;20198;-45
2022/12/28 04:21:04;;;;;;;3.37;1.77;;;8.10;99.90;;;;;;5035416;28;20220;-42
2022/12/28 04:23:31;;;;;;;1.90;1.40;;;8.10;99.90;;;;;;5035361;28;20275;-45
2022/12/28 04:25:57;;;;;;;3.30;1.83;;;8.10;99.90;;;;;;5034999;28;20218;-44
2022/12/28 04:28:24;;;;;;;3.37;1.50;;;8.10;99.90;;;;;;5034953;28;20691;-44
2022/12/28 04:30:49;;;;;;;1.37;1.03;;;8.10;99.90;;;;;;5034954;28;20197;-43
2022/12/28 04:33:15;;;;;;;4.13;1.57;;;8.20;99.90;;;;;;5035394;28;20655;-44
2022/12/28 04:35:40;;;;;;;2.97;2.10;;;8.20;99.90;;;;;;5034709;28;20192;-41
2022/12/28 04:38:06;;;;;;;2.30;1.27;;;8.20;99.90;;;;;;5035034;28;20178;-44
2022/12/28 04:40:31;;;;;;;2.77;1.77;;;8.20;99.90;;;;;;5034571;28;20255;-43
2022/12/28 04:42:57;;;;;;;2.30;1.50;;;8.20;99.90;;;;;;5035008;28;20187;-42
2022/12/28 04:45:22;;;;;;;3.63;1.53;;;8.30;99.90;;;;;;5034631;28;20175;-43
2022/12/28 04:47:48;;;;;;;2.50;1.60;;;8.30;99.90;;;;;;5034858;28;20679;-43
2022/12/28 04:50:13;;;;;;;4.33;1.60;;;8.30;99.90;;;;;;5034791;28;20203;-45
2022/12/28 04:52:39;;;;;;;4.70;1.37;;;8.30;99.90;;;;;;5034479;28;20197;-44
2022/12/28 04:55:05;;;;;;;2.67;1.40;;;8.30;99.90;;;;;;5034728;28;20186;-44
2022/12/28 04:57:30;;;;;;;3.70;1.57;;;8.40;99.90;;;;;;5033043;28;20196;-44
2022/12/28 04:59:56;;;;;;;3.23;1.47;;;8.40;99.90;;;;;;5034472;28;20201;-45
2022/12/28 05:02:21;;;;;;;3.87;1.43;;;8.30;99.90;;;;;;5034698;28;20197;-43
2022/12/28 05:04:47;;;;;;;2.73;1.27;;;8.40;99.90;;;;;;5034250;28;20219;-44
2022/12/28 05:07:12;;;;;;;3.10;1.17;;;8.40;99.90;;;;;;5034484;28;20238;-46
2022/12/28 05:09:38;;;;;;;2.27;1.33;;;8.40;99.90;;;;;;5032570;28;20200;-43
2022/12/28 05:12:04;;;;;;;4.77;1.50;;;8.40;99.90;;;;;;5034084;28;20768;-43
2022/12/28 05:14:29;;;;;;;2.30;1.00;;;8.50;99.90;;;;;;5034083;28;20675;-44
2022/12/28 05:16:55;;;;;;;3.17;1.60;;;8.40;99.90;;;;;;5033363;28;20184;-43
2022/12/28 05:19:20;;;;;;;4.47;1.60;;;8.40;99.90;;;;;;5033935;28;20259;-43
2022/12/28 05:21:46;;;;;;;3.90;1.10;;;8.50;99.90;;;;;;5033908;28;20228;-46
2022/12/28 05:24:11;;;;;;;2.90;1.30;;;8.50;99.90;;;;;;5034245;28;20165;-44
2022/12/28 05:26:37;;;;;;;2.57;1.13;;;8.50;99.90;;;;;;5034371;28;20202;-43
2022/12/28 05:29:03;;;;;;;1.43;1.23;;;8.60;99.90;;;;;;5034073;28;20239;-45
2022/12/28 05:31:28;;;;;;;3.27;1.10;;;8.60;99.90;;;;;;5034247;28;20635;-45
2022/12/28 05:33:54;;;;;;;1.60;1.30;;;8.60;99.90;;;;;;5033675;28;20640;-44
2022/12/28 05:36:22;;;;;;;2.70;1.53;;;8.60;99.90;;;;;;5033722;28;20231;-42
2022/12/28 05:38:48;;;;;;;3.27;1.63;;;8.60;99.90;;;;;;5033661;28;20181;-44
2022/12/28 05:41:19;;;;;;;1.63;0.97;;;8.70;99.90;;;;;;5033808;28;20680;-42
2022/12/28 05:43:46;;;;;;;3.70;1.57;;;8.60;99.90;;;;;;5033900;28;20165;-42
2022/12/28 05:46:14;;;;;;;2.73;1.30;;;8.60;99.90;;;;;;5033583;28;20181;-43
2022/12/28 05:48:41;;;;;;;2.57;1.27;;;8.70;99.90;;;;;;5032233;28;20272;-44
2022/12/28 05:51:09;;;;;;;4.40;1.33;;;8.70;99.90;;;;;;5033743;28;20300;-44
2022/12/28 05:53:35;;;;;;;2.40;1.00;;;8.60;99.90;;;;;;5032240;28;20272;-45
2022/12/28 05:56:02;;;;;;;2.63;1.37;;;8.70;99.90;;;;;;5033919;28;20266;-42
2022/12/28 05:58:28;;;;;;;2.70;0.97;;;8.70;99.90;;;;;;5033364;28;20192;-44
2022/12/28 06:01:02;;;;;;;1.27;1.00;;;8.60;99.90;;;;;;5033255;28;20212;-44
2022/12/28 06:03:28;;;;;;;4.43;1.27;;;8.60;99.90;;;;;;5033515;28;20207;-45
2022/12/28 06:05:53;;;;;;;3.60;1.20;;;8.60;99.90;;;;;;5033942;28;20636;-44
2022/12/28 06:08:19;;;;;;;1.33;1.00;;;8.70;99.90;;;;;;5032034;28;20184;-44
2022/12/28 06:10:44;;;;;;;1.40;0.90;;;8.70;99.90;;;;;;5032374;28;20327;-44
2022/12/28 06:13:10;;;;;;;2.77;1.10;;;8.70;99.90;;;;;;5034536;28;20189;-43
2022/12/28 06:15:35;;;;;;;5.17;1.37;;;8.70;99.90;;;;;;5033514;28;20193;-42
2022/12/28 06:18:01;;;;;;;5.83;1.37;;;8.70;99.90;;;;;;5033592;28;20563;-51
2022/12/28 06:20:26;;;;;;;3.43;1.30;;;8.70;99.90;;;;;;5033315;28;20600;-49
2022/12/28 06:22:52;;;;;;;5.30;1.37;;;8.70;99.90;;;;;;5037908;28;20536;-51
2022/12/28 06:25:18;;;;;;;3.70;1.20;;;8.70;99.90;;;;;;5036895;28;20534;-49
2022/12/28 06:27:43;;;;;;;4.37;1.40;;;8.70;99.90;;;;;;5038881;28;20231;-48
2022/12/28 06:30:09;;;;;;;1.47;1.17;;;8.70;99.90;;;;;;5036314;28;20227;-48
2022/12/28 06:32:35;;;;;;;1.63;0.93;;;8.70;99.90;;;;;;5037179;28;20205;-48
2022/12/28 06:35:01;;;;;;;1.83;1.30;;;8.70;99.90;;;;;;5035931;28;20195;-49
2022/12/28 06:37:27;;;;;;;2.03;1.30;;;8.70;99.90;;;;;;5037438;28;20191;-50
2022/12/28 06:39:52;;;;;;;1.57;0.93;;;8.70;99.90;;;;;;5037059;28;20571;-50
2022/12/28 06:42:18;;;;;;;3.13;0.93;;;8.70;99.90;;;;;;5037187;28;20235;-49
2022/12/28 06:44:43;;;;;;;3.17;0.93;;;8.70;99.90;;;;;;5035683;28;20253;-48
2022/12/28 06:47:09;;;;;;;1.97;1.60;;;8.70;99.90;;;;;;5036970;28;20709;-49
2022/12/28 06:49:34;;;;;;;2.53;1.10;;;8.70;99.90;;;;;;5037411;28;20184;-48
2022/12/28 06:52:00;;;;;;;2.77;1.10;;;8.70;99.90;;;;;;5036882;28;20200;-49
2022/12/28 06:54:25;;;;;;;1.70;0.93;;;8.60;99.90;;;;;;5037281;28;20193;-48
2022/12/28 06:56:51;;;;;;;4.90;1.20;;;8.70;99.90;;;;;;5035629;28;20189;-49
2022/12/28 06:59:16;;;;;;;2.97;1.10;;;8.60;99.90;;;;;;5036777;28;20216;-50
2022/12/28 07:01:45;;;;;;;3.93;0.80;;;8.60;99.90;;;;;;5036983;28;20193;-49
2022/12/28 07:04:10;;;;;;;2.70;0.77;;;8.60;99.90;;;;;;5037078;28;20177;-48
2022/12/28 07:06:39;;;;;;;1.90;1.10;;;8.60;99.90;;;;;;5036825;28;20517;-48
2022/12/28 07:09:09;;;;;;;1.20;0.87;;;8.70;99.90;;;;;;5036748;28;20169;-50
2022/12/28 07:11:36;;;;;;;1.03;0.93;;;8.70;99.90;;;;;;5037016;28;20198;-49
2022/12/28 07:14:01;;;;;;;1.83;0.97;;;8.70;99.90;;;;;;5036815;28;20751;-49
2022/12/28 07:16:28;;;;;;;3.60;1.30;;;8.70;99.90;;;;;;5036729;28;20173;-49
2022/12/28 07:18:55;;;;;;;3.17;0.80;;;8.70;99.90;;;;;;5036720;28;20633;-49
2022/12/28 07:21:24;;;;;;;2.63;0.83;;;8.80;99.90;;;;;;5036742;28;20314;-49
2022/12/28 07:23:51;;;;;;;3.63;0.97;;;8.80;99.90;;;;;;5036722;28;20181;-48
2022/12/28 07:26:20;;;;;;;1.43;0.93;;;8.80;99.90;;;;;;5036564;28;20191;-50
2022/12/28 07:28:47;;;;;;;2.27;0.67;;;8.80;99.90;;;;;;5035177;28;20188;-48
2022/12/28 07:31:16;;;;;;;1.37;0.70;;;8.80;99.90;;;;;;5036935;28;20528;-48
2022/12/28 07:33:43;;;;;;;6.90;0.80;;;8.80;99.90;;;;;;5018918;28;20181;-48
2022/12/28 07:36:12;;;;;;;3.43;0.90;;;8.80;99.90;;;;;;5035359;28;20573;-48
2022/12/28 07:38:38;;;;;;;1.97;0.77;;;8.80;99.90;;;;;;5036431;28;20184;-49
2022/12/28 07:41:10;;;;;;;0.93;0.60;;;8.80;99.90;;;;;;5036379;28;20213;-48
2022/12/28 07:43:36;;;;;;;1.93;0.60;;;8.90;99.90;;;;;;5036199;28;20173;-49
2022/12/28 07:46:10;;;;;;;0.87;0.70;;;8.80;99.90;;;;;;5036276;28;20196;-49
2022/12/28 07:48:37;;;;;;;1.47;0.80;;;8.90;99.90;;;;;;5036302;28;20184;-49
2022/12/28 07:51:11;;;;;;;2.30;1.20;;;8.90;99.90;;;;;;5036126;28;20233;-50
2022/12/28 07:53:38;;;;;;;1.70;0.60;;;8.90;99.90;;;;;;5034609;28;20184;-49
2022/12/28 07:56:05;;;;;;;5.63;1.27;;;8.90;99.90;;;;;;5036005;28;20177;-48
2022/12/28 07:58:31;;;;;;;1.30;0.70;;;9.00;99.90;;;;;;5035860;28;20201;-51
2022/12/28 08:01:24;;;;;;;1.17;0.70;;;8.90;99.90;;;;;;5035934;28;20300;-48
2022/12/28 08:03:56;;;;;;;1.83;0.70;;;9.00;99.90;;;;;;5033504;28;20648;-49
2022/12/28 08:06:23;;;;;;;4.10;0.70;;;9.00;99.90;;;;;;5036111;28;20260;-48
2022/12/28 08:08:53;;;;;;;2.33;0.70;;;9.00;99.90;;;;;;5035920;28;20241;-48
2022/12/28 08:11:22;;;;;;;1.53;0.60;;;9.00;99.90;;;;;;5034546;28;20193;-50
2022/12/28 08:13:49;;;;;;;6.87;0.77;;;9.00;99.90;;;;;;5036346;28;20688;-51
2022/12/28 08:16:19;;;;;;;4.43;1.10;;;9.00;99.90;;;;;;5036016;28;20170;-48
2022/12/28 08:18:46;;;;;;;2.90;1.20;;;9.00;99.90;;;;;;5035744;28;20157;-49
2022/12/28 08:21:24;;;;;;;0.60;0.60;;;9.10;99.90;;;;;;5035494;28;20189;-48
2022/12/28 08:23:51;;;;;;;3.43;0.90;;;9.10;99.90;;;;;;5035696;28;20165;-49
2022/12/28 08:26:21;;;;;;;2.20;0.80;;;9.10;99.90;;;;;;5035545;28;20185;-49
2022/12/28 08:28:48;;;;;;;1.60;0.80;;;9.10;99.90;;;;;;5035683;28;20166;-51
2022/12/28 08:31:20;;;;;;;1.87;0.80;;;9.10;99.90;;;;;;5033840;28;20694;-50
2022/12/28 08:33:46;;;;;;;0.93;0.70;;;9.10;99.90;;;;;;5035250;28;20260;-50
2022/12/28 08:36:13;;;;;;;2.50;0.90;;;9.20;99.90;;;;;;5035038;28;20253;-51
2022/12/28 08:38:40;;;;;;;2.97;0.93;;;9.20;99.90;;;;;;5034884;28;20666;-51
2022/12/28 08:41:07;;;;;;;2.27;0.70;;;9.10;99.90;;;;;;5035195;28;20756;-49
2022/12/28 08:43:34;;;;;;;1.23;0.70;;;9.20;99.90;;;;;;5034496;28;20177;-48
2022/12/28 08:46:27;;;;;;;1.73;0.60;;;9.20;99.90;;;;;;5034809;28;20199;-50
2022/12/28 08:48:54;;;;;;;0.60;0.60;;;9.20;99.90;;;;;;5032029;28;20191;-49
2022/12/28 08:51:31;;;;;;;2.53;0.93;;;9.20;99.90;;;;;;5034973;28;20657;-50
2022/12/28 08:53:57;;;;;;;3.30;0.90;;;9.20;99.90;;;;;;5034990;28;20211;-51
2022/12/28 08:56:26;;;;;;;1.90;0.80;;;9.30;99.90;;;;;;5034962;28;20177;-48
2022/12/28 08:58:52;;;;;;;0.60;0.50;;;9.20;99.90;;;;;;5033390;28;20197;-47
2022/12/28 09:01:36;;;;;;;3.93;0.80;;;9.20;99.90;;;;;;5034700;28;20202;-44
2022/12/28 09:04:03;;;;;;;0.60;0.60;;;9.30;99.90;;;;;;5033066;28;20190;-46
2022/12/28 09:06:34;;;;;;;0.50;0.50;;;9.30;99.90;;;;;;5034383;28;20293;-44
2022/12/28 09:09:01;;;;;;;2.07;0.80;;;9.40;99.90;;;;;;5034538;28;20177;-44
2022/12/28 09:11:26;;;;;;;0.77;0.67;;;9.40;99.90;;;;;;5034173;28;20189;-44
2022/12/28 09:13:52;;;;;;;1.80;0.80;;;9.40;99.90;;;;;;5034141;28;20184;-45
2022/12/28 09:16:22;;;;;;;1.70;0.63;;;9.40;99.90;;;;;;5034243;28;20173;-45
2022/12/28 09:18:51;;;;;;;2.57;0.97;;;9.40;99.90;;;;;;5032747;28;20173;-45
2022/12/28 09:21:20;;;;;;;1.40;0.67;;;9.40;99.90;;;;;;5033943;28;20196;-44
2022/12/28 09:23:46;;;;;;;1.00;0.40;;;9.40;99.90;;;;;;5033874;28;20594;-45
2022/12/28 09:26:23;;;;;;;3.67;0.70;;;9.50;99.90;;;;;;5033864;28;20177;-44
2022/12/28 09:28:51;;;;;;;2.53;0.93;;;9.50;99.90;;;;;;5033940;28;20193;-45
2022/12/28 09:31:18;;;;;;;1.93;0.70;;;9.50;99.90;;;;;;5033948;28;20202;-44
2022/12/28 09:33:59;;;;;;;0.83;0.60;;;9.60;99.90;;;;;;5034104;28;20520;-43
2022/12/28 09:36:40;;;;;;;1.63;0.70;;;9.60;99.90;;;;;;5033795;28;20157;-44
2022/12/28 09:39:16;;;;;;;2.03;0.70;;;9.60;99.90;;;;;;5032404;28;20196;-46
2022/12/28 09:41:58;;;;;;;0.67;0.67;;;9.60;99.90;;;;;;5033640;28;20200;-44
2022/12/28 09:44:29;;;;;;;0.50;0.50;;;9.60;99.90;;;;;;5032554;28;20165;-45
2022/12/28 09:47:00;;;;;;;2.60;0.70;;;9.70;99.90;;;;;;5034327;28;20158;-44
2022/12/28 09:49:55;;;;;;;1.30;0.53;;;9.70;99.90;;;;;;5034288;28;20217;-46
2022/12/28 09:52:27;;;;;;;2.13;0.70;;;9.70;99.90;;;;;;5033723;28;20266;-45
2022/12/28 09:54:53;;;;;;;1.27;0.70;;;9.80;99.90;;;;;;5034252;28;20177;-45
2022/12/28 09:57:19;;;;;;;4.77;0.80;;;9.80;99.90;;;;;;5033494;28;20666;-44
2022/12/28 09:59:47;;;;;;;2.60;1.03;;;9.80;99.90;;;;;;5034830;28;20231;-46
2022/12/28 10:02:26;;;;;;;1.50;0.80;;;9.80;99.90;;;;;;5033423;28;20684;-45
2022/12/28 10:04:51;;;;;;;1.73;0.80;;;9.80;99.90;;;;;;5032199;28;20177;-45
2022/12/28 10:07:17;;;;;;;1.83;0.93;;;9.80;99.90;;;;;;5032161;28;20172;-46
2022/12/28 10:09:43;;;;;;;0.83;0.83;;;9.80;99.90;;;;;;5033527;28;20177;-45
2022/12/28 10:12:17;;;;;;;2.13;1.00;;;9.90;99.90;;;;;;5033653;28;20198;-45
2022/12/28 10:14:47;;;;;;;1.70;1.00;;;9.90;99.90;;;;;;5033533;28;20173;-44
2022/12/28 10:17:15;;;;;;;1.53;0.80;;;9.90;99.90;;;;;;5033479;28;20535;-45
2022/12/28 10:19:45;;;;;;;1.87;0.80;;;9.90;99.90;;;;;;5033718;28;20236;-46
2022/12/28 10:22:15;;;;;;;4.37;0.90;;;10.00;99.90;;;;;;5033226;28;20193;-44
2022/12/28 10:24:42;;;;;;;0.60;0.60;;;10.00;99.90;;;;;;5032032;28;20201;-43
2022/12/28 10:27:22;;;;;;;2.27;1.33;;;10.00;99.90;;;;;;5033227;28;20177;-43
2022/12/28 10:29:53;;;;;;;3.50;1.10;;;10.00;99.90;;;;;;5033410;28;20172;-44
2022/12/28 10:32:19;;;;;;;1.40;0.97;;;10.10;99.90;;;;;;5033566;28;20305;-44
2022/12/28 10:34:57;;;;;;;1.70;0.80;;;10.10;99.90;;;;;;5033370;28;20618;-44
2022/12/28 10:37:25;;;;;;;0.70;0.70;;;10.10;99.90;;;;;;5032980;28;20165;-45
2022/12/28 10:40:14;;;;;;;1.47;0.87;;;10.10;99.90;;;;;;5033472;28;20193;-43
2022/12/28 10:42:42;;;;;;;2.47;1.00;;;10.10;99.90;;;;;;5032984;28;20227;-45
2022/12/28 10:45:39;;;;;;;2.43;0.90;;;10.10;99.90;;;;;;5032955;28;20173;-45
2022/12/28 10:48:13;;;;;;;2.10;0.77;;;10.10;99.90;;;;;;5020766;28;20233;-44
2022/12/28 10:51:13;;;;;;;5.63;1.80;;;10.10;99.90;;;;;;5032811;28;20235;-44
2022/12/28 10:53:41;;;;;;;0.60;0.60;;;10.10;99.90;;;;;;5029665;28;20189;-45
2022/12/28 10:56:12;;;;;;;1.53;1.10;;;10.20;99.90;;;;;;5032981;28;20181;-44
2022/12/28 10:58:43;;;;;;;1.90;0.90;;;10.20;99.90;;;;;;5032761;28;20197;-42
2022/12/28 11:01:12;;;;;;;3.13;0.87;;;10.20;99.90;;;;;;5033008;28;20212;-44
2022/12/28 11:03:43;;;;;;;2.70;1.30;;;10.20;99.90;;;;;;5032830;28;20277;-43
2022/12/28 11:06:21;;;;;;;2.67;1.03;;;10.20;99.90;;;;;;5032944;28;20172;-45
2022/12/28 11:09:04;;;;;;;3.57;1.27;;;10.30;99.90;;;;;;5036771;28;20188;-44
2022/12/28 11:11:30;;;;;;;2.40;0.90;;;10.30;99.90;;;;;;5035207;28;20207;-44
2022/12/28 11:14:03;;;;;;;1.07;0.90;;;10.40;99.90;;;;;;5037231;28;20185;-47
2022/12/28 11:16:33;;;;;;;1.90;1.07;;;10.40;99.90;;;;;;5036365;28;20256;-43
2022/12/28 11:18:59;;;;;;;2.23;0.80;;;10.40;99.90;;;;;;5036671;28;20162;-44
2022/12/28 11:21:25;;;;;;;1.53;0.70;;;10.50;99.90;;;;;;5036475;28;20194;-44
2022/12/28 11:23:52;;;;;;;4.93;1.10;;;10.50;99.90;;;;;;5036430;28;20198;-43
2022/12/28 11:26:18;;;;;;;1.83;1.07;;;10.50;99.90;;;;;;5036477;28;20189;-45
2022/12/28 11:28:47;;;;;;;1.97;0.80;;;10.50;99.90;;;;;;5036356;28;20246;-45
2022/12/28 11:31:21;;;;;;;3.43;0.97;;;10.50;99.90;;;;;;5036226;28;20668;-44
2022/12/28 11:33:55;;;;;;;1.77;1.13;;;10.60;99.90;;;;;;5037175;28;20184;-45
2022/12/28 11:36:26;;;;;;;1.47;1.00;;;10.50;99.90;;;;;;5036090;28;20168;-45
2022/12/28 11:38:54;;;;;;;0.63;0.63;;;10.60;99.90;;;;;;5036134;28;20180;-45
2022/12/28 11:41:27;;;;;;;3.23;1.23;;;10.60;99.90;;;;;;5036149;28;20295;-44
2022/12/28 11:44:05;;;;;;;5.90;0.73;;;10.60;99.90;;;;;;5036121;28;20183;-45
2022/12/28 11:46:34;;;;;;;0.93;0.77;;;10.60;99.90;;;;;;5035926;28;20168;-45
2022/12/28 11:49:04;;;;;;;3.33;1.10;;;10.60;99.90;;;;;;5035777;28;20702;-46
2022/12/28 11:51:31;;;;;;;3.40;1.17;;;10.60;99.90;;;;;;5035778;28;20207;-42
2022/12/28 11:54:37;;;;;;;3.17;1.00;;;10.50;99.90;;;;;;5035983;28;20173;-45
2022/12/28 11:57:03;;;;;;;3.13;1.00;;;10.50;99.90;;;;;;4958698;28;20178;-42
2022/12/28 11:59:36;;;;;;;0.80;0.80;;;10.50;99.90;;;;;;5023177;28;20236;-45
2022/12/28 12:02:18;;;;;;;1.47;1.00;;;10.50;99.90;;;;;;5035888;28;20204;-45
2022/12/28 12:04:45;;;;;;;3.83;1.10;;;10.50;99.90;;;;;;5035852;28;20177;-44
2022/12/28 12:07:20;;;;;;;3.23;1.03;;;10.40;99.90;;;;;;5035527;28;20729;-44
2022/12/28 12:09:48;;;;;;;1.03;0.90;;;10.40;99.90;;;;;;5034153;28;20184;-45
2022/12/28 12:12:13;;;;;;;3.50;0.93;;;10.40;99.90;;;;;;5035332;28;20227;-45
2022/12/28 12:15:05;;;;;;;4.70;1.00;;;10.40;99.90;;;;;;5035533;28;20187;-46
2022/12/28 12:18:08;;;;;;;2.10;0.90;;;10.40;99.90;;;;;;5027416;28;20680;-44
2022/12/28 12:21:05;;;;;;;2.77;1.20;;;10.40;99.90;;;;;;5032366;28;20223;-44
2022/12/28 12:23:44;;;;;;;2.30;0.80;;;10.40;99.90;;;;;;5035167;28;20267;-44
2022/12/28 12:26:33;;;;;;;1.13;1.00;;;10.30;99.90;;;;;;5035136;28;20526;-46
2022/12/28 12:29:03;;;;;;;3.33;1.20;;;10.30;99.90;;;;;;5026207;28;20223;-45
2022/12/28 12:31:38;;;;;;;3.03;0.90;;;10.30;99.90;;;;;;5035584;28;20196;-45
2022/12/28 12:34:33;;;;;;;2.33;0.73;;;10.30;99.90;;;;;;5033809;28;20172;-45
2022/12/28 12:37:20;;;;;;;1.87;0.97;;;10.30;99.90;;;;;;5029675;28;20542;-45
2022/12/28 12:40:08;;;;;;;2.23;0.80;;;10.20;99.90;;;;;;5035140;28;20559;-45
2022/12/28 12:42:48;;;;;;;2.77;1.40;;;10.20;99.90;;;;;;5033452;28;20251;-43
2022/12/28 12:45:22;;;;;;;4.77;0.90;;;10.20;99.90;;;;;;5033510;28;20173;-45
2022/12/28 12:48:09;;;;;;;1.17;0.73;;;10.10;99.90;;;;;;5034913;28;20176;-44
2022/12/28 12:50:55;;;;;;;2.00;0.87;;;10.10;99.90;;;;;;5034554;28;20648;-43
2022/12/28 12:53:51;;;;;;;2.23;1.20;;;10.10;99.90;;;;;;5034572;28;20789;-46
2022/12/28 12:56:40;;;;;;;3.30;1.33;;;10.10;99.90;;;;;;5034889;28;20182;-45
2022/12/28 12:59:27;;;;;;;2.70;1.23;;;10.10;99.90;;;;;;5034317;28;20578;-43
2022/12/28 13:02:22;;;;;;;2.10;1.10;;;10.10;99.90;;;;;;5034324;28;20612;-45
2022/12/28 13:04:48;;;;;;;2.80;1.10;;;10.10;99.90;;;;;;5011260;28;20204;-43
2022/12/28 13:07:20;;;;;;;1.90;0.83;;;10.10;99.90;;;;;;5034752;28;20601;-45
2022/12/28 13:09:47;;;;;;;3.23;0.93;;;10.10;99.90;;;;;;5034881;28;20172;-45
2022/12/28 13:12:15;;;;;;;1.87;1.07;;;10.10;99.90;;;;;;5032789;28;20291;-45
2022/12/28 13:14:46;;;;;;;4.73;1.20;;;10.10;99.90;;;;;;5034961;28;20245;-44
2022/12/28 13:17:20;;;;;;;5.87;1.30;;;10.10;99.90;;;;;;5034305;28;20179;-45
2022/12/28 13:19:46;;;;;;;4.10;1.10;;;10.20;99.90;;;;;;5032845;28;20311;-45
2022/12/28 13:22:30;;;;;;;4.70;1.47;;;10.20;99.90;;;;;;5033151;28;20204;-43
2022/12/28 13:24:57;;;;;;;2.57;1.20;;;10.20;99.90;;;;;;5034299;28;20180;-45
2022/12/28 13:27:32;;;;;;;1.37;0.83;;;10.20;99.90;;;;;;5033995;28;20579;-44
2022/12/28 13:29:59;;;;;;;6.13;1.40;;;10.20;99.90;;;;;;5033655;28;20506;-42
2022/12/28 13:32:27;;;;;;;3.13;0.90;;;10.20;99.90;;;;;;5033797;28;20275;-44
2022/12/28 13:34:52;;;;;;;4.10;1.20;;;10.20;99.90;;;;;;5033803;28;20648;-43
2022/12/28 13:37:19;;;;;;;3.00;1.83;;;10.20;99.90;;;;;;5033840;28;20195;-44
2022/12/28 13:39:46;;;;;;;1.60;1.30;;;10.20;99.90;;;;;;5033917;28;20200;-46